Terminal Aerodrome Forecast
Issued by NWS Pocatello, ID

Home | Current Version | Previous Version | Text Only | Print | Product List | Glossary On
Versions: 1 2 3 4 5 6 7 8 9 10 11 12 13 14 15 16 17 18 19 20 21
000
FTUS45 KPIH 272113 AAB
TAFIDA
TAF AMD
KIDA 272113Z 2721/2818 21011KT P6SM -SHRA VCTS SCT050 BKN080CB
      TEMPO 2721/2722 VRB15G25KT P6SM -TSRA SCT020 BKN050CB
     FM280400 21007KT P6SM VCSH SCT080 BKN120=

USA.gov is the U.S. government's official web portal to all federal, state and local government web resources and services.